Questo sito utilizza cookie tecnici e di profilazione anche di "terze parti" per inviarti pubblicità e servizi in linea con le tue preferenze. Chiudendo questo banner, scorrendo questa pagina o cliccando qualunque suo elemento acconsenti all'uso dei cookies. Ti invitiamo a leggere la nostra PRIVACY POLICY.
X
Ad

Ad
Ad
Ad


Sci, Gp Italia seniores: bis di Bosca nel gigante maschile a Santa Caterina Valfurva. I risultati

venerdì, 23 febbraio 2018

Santa Caterina Valfurva – Si sono chiuse questa mattina le gare in programma per Gp Italia e Fis a santa Caterina Valfurva. Giulio Giovanni Bosca ha bissato il successo ottenuto ieri nel gigante maschile con il tempo totale delle due manche di 2:04.21. Sul podio altri due italiani, si tratta di Roberto Nani e Tommaso Sala che hanno chiuso rispettivamente a 19 e 22 centesimi dal vincitore. Il resto della top ten recita: Giovanni Borsotti, Eemeli Pirinen, Michelangelo Tentori, Daniele Sorio, Alessandro Brean, Victor Guillot e Michele Gualazzi.

santacat_230218Altro sigillo “griffato” Comitato FISI Alpi Centrali quest’oggi a Santa Caterina dove si è svolto uno slalom gigante valido per il circuito FIS. Nella speciale classifica riservata alla categoria Aspiranti arrivano il secondo ed il terzo posto da parte di due atleti della formazione di coach Maurilio Alessi. A salire sul gradino “nobile” del podio è stato il bergamasco dello sci club Radici Group Filippo Della Vite davanti al compagno di club Alessandro Pizio nella classifica vinta dal bolzanino Alberto Battisti.

Ordine di arrivo gigante maschile Santa Caterina Valfurva (Ita):
1 BOSCA Giulio Giovanni ITA 1:01.34 1 +1.25 16 ◄ 2:04.21
2 NANI Roberto ITA +0.22 2 +1.22 15 ◄ 2:04.40 +0.19
3 SALA Tommaso ITA +0.48 6 +0.99 10 3 ▲ 2:04.43 +0.22
4 BORSOTTI Giovanni ITA +0.62 8 +0.98 9 4 ▲ 2:04.56 +0.35
5 PIRINEN Eemeli FIN +0.57 7 +1.14 13 2 ▲ 2:04.67 +0.46
6 TENTORI Michelangelo ITA +0.96 11 +0.79 7 5 ▲ 2:04.71 +0.50
7 SORIO Daniele ITA +0.43 5 +1.34 19 2 ▼ 2:04.73 +0.52
8 BREAN Alessandro ITA +0.34 3 +1.59 23 5 ▼ 2:04.89 +0.68
9 GUILLOT Victor FRA +0.40 4 +1.58 22 5 ▼ 2:04.94 +0.73
10 GUALAZZI Michele ITA +1.36 16 +0.67 4 6 ▲ 2:04.99 +0.78

11 BLENGINI Alberto ITA +2.16 29 1:01.62 1 18 ▲ 2:05.12 +0.91
15 BATTISTI Alberto ITA +2.13 28 +0.43 2 13 ▲ 2:05.52 +1.31
16 ZINGERLE Alex ITA +0.91 10 +1.68 26 6 ▼ 2:05.55 +1.34
17 KASTLUNGER Tobias ITA +1.58 19 +1.07 12 2 ▲ 2:05.61 +1.40
18 CANZIO Pietro ITA +1.17 13 +1.61 25 5 ▼ 2:05.74 +1.53
21 CANINS Matteo ITA +1.32 15 +1.57 21 6 ▼ 2:05.85 +1.64
22 HELL Damian ITA +2.11 27 +0.82 8 5 ▲ 2:05.89 +1.68
23 FANTINO Antonio ITA +1.50 18 +1.50 20 5 ▼ 2:05.96 +1.75
25 MOLING Samuel ITA +2.06 25 +1.02 11 ◄ 2:06.04 +1.83
27 MOSCHINI Lorenzo ITA +1.40 17 +2.01 29 10 ▼ 2:06.37 +2.16
28 PASINI Giovanni ITA +2.19 30 +1.32 18 2 ▲ 2:06.47 +2.26
29 SQUASSINO Andrea ITA +1.93 24 +1.60 24 5 ▼ 2:06.49 +2.28
30 FRANCESCHETTI Pietro ITA +1.85 23 +1.71 27 7 ▼ 2:06.52 +2.31
31 CANCLINI Tommaso ITA +2.20 31 +2.12 31 ◄ 2:07.28 +3.07
32 CONFORTOLA Matteo ITA +2.23 32 +2.16 32 ◄ 2:07.35 +3.14
35 PAINI Federico ITA +2.61 36 +2.63 36 1 ▲ 2:08.20 +3.99
36 DELLA VITE Filippo ITA +3.37 48 +2.39 33 12 ▲ 2:08.72 +4.51
37 BARUFFALDI Davide ITA +2.79 40 +3.02 40 3 ▲ 2:08.77 +4.56
38 RICCUCCI Alessandro ITA +2.71 38 +3.13 42 ◄ 2:08.80 +4.59
41 MODESTI Matteo ITA +3.37 48 +2.91 38 7 ▲ 2:09.24 +5.03
42 CANCLINI Fabiano ITA +3.11 44 +3.19 43 2 ▲ 2:09.26 +5.05
45 PIZIO Alessandro ITA +3.50 50 +2.95 39 5 ▲ 2:09.41 +5.20
46 STEINMAIR Matthias ITA +3.83 58 +3.02 40 12 ▲ 2:09.81 +5.60
47 SALINI Alessandro ITA +3.72 55 +3.22 45 8 ▲ 2:09.90 +5.69
49 SCURI Alessandro ITA +3.81 57 +3.20 44 8 ▲ 2:09.97 +5.76
50 AICHNER Franz ITA +3.62 53 +3.68 51 3 ▲ 2:10.26 +6.05
50 GORI Francesco ITA +3.27 46 +4.03 54 4 ▼ 2:10.26 +6.05
52 TALACCI Simon ITA +3.97 61 +3.43 48 9 ▲ 2:10.36 +6.15
53 RESINELLI Luca ITA +3.61 52 +3.84 52 1 ▼ 2:10.41 +6.20
54 FONTANAZZI Alessio ITA +3.77 56 +3.84 52 2 ▲ 2:10.57 +6.36
55 BENDOTTI Matteo ITA +3.01 41 +4.80 60 14 ▼ 2:10.77 +6.56
56 VIETTI Federico ITA +3.67 54 +4.15 55 2 ▼ 2:10.78 +6.57
57 MENCACCINI Lorenzo ITA +3.89 60 +4.42 56 3 ▲ 2:11.27 +7.06
58 OBERHAMMER Matthias ITA +4.44 66 +4.49 57 8 ▲ 2:11.89 +7.68
59 CORDONE Stefano ITA +4.14 64 +4.90 61 5 ▲ 2:12.00 +7.79
60 DA PRADA Simone ITA +4.70 68 +4.66 58 8 ▲ 2:12.32 +8.11
61 ZAMPOLINI Andrea ITA +4.08 63 +5.35 63 2 ▲ 2:12.39 +8.18
62 MORETTI Nicola ITA +4.91 70 +4.78 59 8 ▲ 2:12.65 +8.44
63 POZZI Alessandro ITA +4.81 69 +4.90 61 6 ▲ 2:12.67 +8.46
64 MAZZOCCO Nicolo ITA +4.57 67 +5.68 65 3 ▲ 2:13.21 +9.00
65 BOEHM Gianluca SUI +5.08 71 +5.75 66 6 ▲ 2:13.79 +9.58
66 PRINCIOTTA Giorgio ITA +5.77 74 +5.65 64 8 ▲ 2:14.38 +10.17
67 SACCARDI Tommaso ITA +5.76 73 +5.92 67 6 ▲ 2:14.64 +10.43
68 CASALINO Gabriele ITA +5.87 76 +6.12 68 8 ▲ 2:14.95 +10.74
69 GITTO Elia ITA +5.80 75 +6.78 70 6 ▲ 2:15.54 +11.33
70 BIELLER Peter ITA +6.58 78 +6.63 69 8 ▲ 2:16.17 +11.96
71 BERNARDI Mattia ITA +6.41 77 +7.30 73 6 ▲ 2:16.67 +12.46
73 CATTANEO Federico ITA +7.05 80 +7.48 74 7 ▲ 2:17.49 +13.28
74 PALLAIS Federico ITA +7.62 82 +7.08 71 8 ▲ 2:17.66 +13.45


© Gazzetta delle Valli - Testata registrata in tribunale, direttore responsabile Alberto Panzeri - P. IVA 03457250136